sensor_id;sensor_type;location;lat;lon;timestamp;temperature;humidity
3876;DHT22;1953;51.222;6.624;2022-08-16T00:05:13;23.60;1.00
3876;DHT22;1953;51.222;6.624;2022-08-16T00:09:56;23.60;1.00
3876;DHT22;1953;51.222;6.624;2022-08-16T00:14:39;23.60;1.00
3876;DHT22;1953;51.222;6.624;2022-08-16T00:19:25;23.70;1.00
3876;DHT22;1953;51.222;6.624;2022-08-16T00:24:09;23.70;1.00
3876;DHT22;1953;51.222;6.624;2022-08-16T00:28:52;23.70;1.00
3876;DHT22;1953;51.222;6.624;2022-08-16T00:33:34;23.70;1.00
3876;DHT22;1953;51.222;6.624;2022-08-16T00:38:17;23.70;1.00
3876;DHT22;1953;51.222;6.624;2022-08-16T00:43:02;23.70;1.00
3876;DHT22;1953;51.222;6.624;2022-08-16T00:47:46;23.70;1.00
3876;DHT22;1953;51.222;6.624;2022-08-16T00:52:28;23.60;1.00
3876;DHT22;1953;51.222;6.624;2022-08-16T00:57:11;23.60;1.00
3876;DHT22;1953;51.222;6.624;2022-08-16T01:01:55;23.60;1.00
3876;DHT22;1953;51.222;6.624;2022-08-16T01:06:38;23.50;1.00
3876;DHT22;1953;51.222;6.624;2022-08-16T01:11:23;23.50;1.00
3876;DHT22;1953;51.222;6.624;2022-08-16T01:16:10;23.50;1.00
3876;DHT22;1953;51.222;6.624;2022-08-16T01:21:11;23.40;1.00
3876;DHT22;1953;51.222;6.624;2022-08-16T01:25:58;23.40;1.00
3876;DHT22;1953;51.222;6.624;2022-08-16T01:30:43;23.30;1.00
3876;DHT22;1953;51.222;6.624;2022-08-16T01:35:29;23.20;1.00
3876;DHT22;1953;51.222;6.624;2022-08-16T01:40:15;23.10;1.00
3876;DHT22;1953;51.222;6.624;2022-08-16T01:45:00;23.00;1.00
3876;DHT22;1953;51.222;6.624;2022-08-16T01:49:42;22.90;1.00
3876;DHT22;1953;51.222;6.624;2022-08-16T01:54:25;22.90;1.00
3876;DHT22;1953;51.222;6.624;2022-08-16T01:59:11;22.70;1.00
3876;DHT22;1953;51.222;6.624;2022-08-16T02:03:55;22.60;1.00
3876;DHT22;1953;51.222;6.624;2022-08-16T02:08:38;22.40;1.00
3876;DHT22;1953;51.222;6.624;2022-08-16T02:13:20;22.40;1.00
3876;DHT22;1953;51.222;6.624;2022-08-16T02:18:03;22.20;1.00
3876;DHT22;1953;51.222;6.624;2022-08-16T02:22:47;22.10;1.00
3876;DHT22;1953;51.222;6.624;2022-08-16T02:27:30;22.10;1.00
3876;DHT22;1953;51.222;6.624;2022-08-16T02:32:15;22.00;1.00
3876;DHT22;1953;51.222;6.624;2022-08-16T02:36:57;21.80;1.00
3876;DHT22;1953;51.222;6.624;2022-08-16T02:41:43;21.80;1.00
3876;DHT22;1953;51.222;6.624;2022-08-16T02:46:26;21.70;1.00
3876;DHT22;1953;51.222;6.624;2022-08-16T02:51:09;21.60;1.00
3876;DHT22;1953;51.222;6.624;2022-08-16T02:55:52;21.60;1.00
3876;DHT22;1953;51.222;6.624;2022-08-16T03:00:36;21.50;1.00
3876;DHT22;1953;51.222;6.624;2022-08-16T03:05:20;21.50;1.00
3876;DHT22;1953;51.222;6.624;2022-08-16T03:10:05;21.40;1.00
3876;DHT22;1953;51.222;6.624;2022-08-16T03:14:48;21.50;1.00
3876;DHT22;1953;51.222;6.624;2022-08-16T03:19:33;21.40;1.00
3876;DHT22;1953;51.222;6.624;2022-08-16T03:24:16;21.30;1.00
3876;DHT22;1953;51.222;6.624;2022-08-16T03:28:59;21.30;1.00
3876;DHT22;1953;51.222;6.624;2022-08-16T03:33:41;21.30;1.00
3876;DHT22;1953;51.222;6.624;2022-08-16T03:38:27;21.20;1.00
3876;DHT22;1953;51.222;6.624;2022-08-16T03:43:11;21.10;1.00
3876;DHT22;1953;51.222;6.624;2022-08-16T03:47:53;21.10;1.00
3876;DHT22;1953;51.222;6.624;2022-08-16T03:52:36;21.10;1.00
3876;DHT22;1953;51.222;6.624;2022-08-16T03:57:19;21.00;1.00
3876;DHT22;1953;51.222;6.624;2022-08-16T04:02:02;20.90;1.00
3876;DHT22;1953;51.222;6.624;2022-08-16T04:06:45;20.80;1.00
3876;DHT22;1953;51.222;6.624;2022-08-16T04:11:27;20.90;1.00
3876;DHT22;1953;51.222;6.624;2022-08-16T04:16:11;20.80;1.00
3876;DHT22;1953;51.222;6.624;2022-08-16T04:20:57;20.70;1.00
3876;DHT22;1953;51.222;6.624;2022-08-16T04:25:40;20.50;1.00
3876;DHT22;1953;51.222;6.624;2022-08-16T04:30:22;20.60;1.00
3876;DHT22;1953;51.222;6.624;2022-08-16T04:35:09;20.60;1.00
3876;DHT22;1953;51.222;6.624;2022-08-16T04:39:52;20.50;1.00
3876;DHT22;1953;51.222;6.624;2022-08-16T04:44:34;20.40;1.00
3876;DHT22;1953;51.222;6.624;2022-08-16T04:49:20;20.50;1.00
3876;DHT22;1953;51.222;6.624;2022-08-16T04:54:04;20.50;1.00
3876;DHT22;1953;51.222;6.624;2022-08-16T04:58:46;20.50;1.00
3876;DHT22;1953;51.222;6.624;2022-08-16T05:03:29;20.50;1.00
3876;DHT22;1953;51.222;6.624;2022-08-16T05:08:12;20.60;1.00
3876;DHT22;1953;51.222;6.624;2022-08-16T05:12:56;20.60;1.00
3876;DHT22;1953;51.222;6.624;2022-08-16T05:17:39;20.70;1.00
3876;DHT22;1953;51.222;6.624;2022-08-16T05:22:21;20.70;1.00
3876;DHT22;1953;51.222;6.624;2022-08-16T05:27:04;20.70;1.00
3876;DHT22;1953;51.222;6.624;2022-08-16T05:31:47;20.70;1.00
3876;DHT22;1953;51.222;6.624;2022-08-16T05:36:31;20.90;1.00
3876;DHT22;1953;51.222;6.624;2022-08-16T05:41:15;20.90;1.00
3876;DHT22;1953;51.222;6.624;2022-08-16T05:45:58;21.00;1.00
3876;DHT22;1953;51.222;6.624;2022-08-16T05:50:42;21.10;1.00
3876;DHT22;1953;51.222;6.624;2022-08-16T05:55:24;21.10;1.00
3876;DHT22;1953;51.222;6.624;2022-08-16T06:00:09;21.20;1.00
3876;DHT22;1953;51.222;6.624;2022-08-16T06:04:52;21.20;1.00
3876;DHT22;1953;51.222;6.624;2022-08-16T06:09:36;21.30;1.00
3876;DHT22;1953;51.222;6.624;2022-08-16T06:14:19;21.50;1.00
3876;DHT22;1953;51.222;6.624;2022-08-16T06:19:02;21.70;1.00
3876;DHT22;1953;51.222;6.624;2022-08-16T06:23:45;21.80;1.00
3876;DHT22;1953;51.222;6.624;2022-08-16T06:28:28;21.90;1.00
3876;DHT22;1953;51.222;6.624;2022-08-16T06:33:12;22.00;1.00
3876;DHT22;1953;51.222;6.624;2022-08-16T06:37:55;22.00;1.00
3876;DHT22;1953;51.222;6.624;2022-08-16T06:42:37;22.20;1.00
3876;DHT22;1953;51.222;6.624;2022-08-16T06:47:21;22.30;1.00
3876;DHT22;1953;51.222;6.624;2022-08-16T06:52:04;22.30;1.00
3876;DHT22;1953;51.222;6.624;2022-08-16T06:56:46;22.60;1.00
3876;DHT22;1953;51.222;6.624;2022-08-16T07:01:29;22.60;1.00
3876;DHT22;1953;51.222;6.624;2022-08-16T07:06:12;22.70;1.00
3876;DHT22;1953;51.222;6.624;2022-08-16T07:10:55;22.80;1.00
3876;DHT22;1953;51.222;6.624;2022-08-16T07:15:38;23.00;1.00
3876;DHT22;1953;51.222;6.624;2022-08-16T07:20:22;23.00;1.00
3876;DHT22;1953;51.222;6.624;2022-08-16T07:25:09;23.10;1.00
3876;DHT22;1953;51.222;6.624;2022-08-16T07:29:52;23.30;1.00
3876;DHT22;1953;51.222;6.624;2022-08-16T07:34:34;23.30;1.00
3876;DHT22;1953;51.222;6.624;2022-08-16T07:39:17;23.50;1.00
3876;DHT22;1953;51.222;6.624;2022-08-16T07:44:01;23.60;1.00
3876;DHT22;1953;51.222;6.624;2022-08-16T07:48:43;23.60;1.00
3876;DHT22;1953;51.222;6.624;2022-08-16T07:53:27;23.80;1.00
3876;DHT22;1953;51.222;6.624;2022-08-16T07:58:10;23.90;1.00
3876;DHT22;1953;51.222;6.624;2022-08-16T08:02:54;23.90;1.00
3876;DHT22;1953;51.222;6.624;2022-08-16T08:07:36;24.10;1.00
3876;DHT22;1953;51.222;6.624;2022-08-16T08:12:19;24.30;1.00
3876;DHT22;1953;51.222;6.624;2022-08-16T08:17:01;24.40;1.00
3876;DHT22;1953;51.222;6.624;2022-08-16T08:21:48;24.60;1.00
3876;DHT22;1953;51.222;6.624;2022-08-16T08:26:34;24.70;1.00
3876;DHT22;1953;51.222;6.624;2022-08-16T08:31:17;24.90;1.00
3876;DHT22;1953;51.222;6.624;2022-08-16T08:36:01;25.00;1.00
3876;DHT22;1953;51.222;6.624;2022-08-16T08:40:45;25.10;1.00
3876;DHT22;1953;51.222;6.624;2022-08-16T08:45:29;25.60;1.00
3876;DHT22;1953;51.222;6.624;2022-08-16T08:50:13;25.40;1.00
3876;DHT22;1953;51.222;6.624;2022-08-16T08:54:56;25.50;1.00
3876;DHT22;1953;51.222;6.624;2022-08-16T08:59:40;25.60;1.00
3876;DHT22;1953;51.222;6.624;2022-08-16T09:04:23;25.90;1.00
3876;DHT22;1953;51.222;6.624;2022-08-16T09:09:05;26.00;1.00
3876;DHT22;1953;51.222;6.624;2022-08-16T09:13:50;26.10;1.00
3876;DHT22;1953;51.222;6.624;2022-08-16T09:18:33;26.10;1.00
3876;DHT22;1953;51.222;6.624;2022-08-16T09:23:16;26.30;1.00
3876;DHT22;1953;51.222;6.624;2022-08-16T09:27:58;26.40;1.00
3876;DHT22;1953;51.222;6.624;2022-08-16T09:32:41;26.50;1.00
3876;DHT22;1953;51.222;6.624;2022-08-16T09:37:25;26.60;1.00
3876;DHT22;1953;51.222;6.624;2022-08-16T09:42:07;26.70;1.00
3876;DHT22;1953;51.222;6.624;2022-08-16T09:46:50;26.90;1.00
3876;DHT22;1953;51.222;6.624;2022-08-16T09:51:33;27.10;1.00
3876;DHT22;1953;51.222;6.624;2022-08-16T09:56:21;27.20;1.00
3876;DHT22;1953;51.222;6.624;2022-08-16T10:01:06;27.30;1.00
3876;DHT22;1953;51.222;6.624;2022-08-16T10:05:49;27.40;1.00
3876;DHT22;1953;51.222;6.624;2022-08-16T10:10:33;27.50;1.00
3876;DHT22;1953;51.222;6.624;2022-08-16T10:15:19;27.70;1.00
3876;DHT22;1953;51.222;6.624;2022-08-16T10:20:03;27.90;1.00
3876;DHT22;1953;51.222;6.624;2022-08-16T10:24:46;28.00;1.00
3876;DHT22;1953;51.222;6.624;2022-08-16T10:29:28;28.10;1.00
3876;DHT22;1953;51.222;6.624;2022-08-16T10:34:12;28.20;1.00
3876;DHT22;1953;51.222;6.624;2022-08-16T10:38:55;28.20;1.00
3876;DHT22;1953;51.222;6.624;2022-08-16T10:43:38;28.20;1.00
3876;DHT22;1953;51.222;6.624;2022-08-16T10:48:21;28.40;1.00
3876;DHT22;1953;51.222;6.624;2022-08-16T10:53:05;28.50;1.00
3876;DHT22;1953;51.222;6.624;2022-08-16T10:57:48;28.60;1.00
3876;DHT22;1953;51.222;6.624;2022-08-16T11:02:31;28.80;1.00
3876;DHT22;1953;51.222;6.624;2022-08-16T11:07:13;28.90;1.00
3876;DHT22;1953;51.222;6.624;2022-08-16T11:11:57;29.00;1.00
3876;DHT22;1953;51.222;6.624;2022-08-16T11:16:39;29.30;1.00
3876;DHT22;1953;51.222;6.624;2022-08-16T11:21:22;29.40;1.00
3876;DHT22;1953;51.222;6.624;2022-08-16T11:26:06;29.70;1.00
3876;DHT22;1953;51.222;6.624;2022-08-16T11:30:50;29.80;1.00
3876;DHT22;1953;51.222;6.624;2022-08-16T11:35:33;30.10;1.00
3876;DHT22;1953;51.222;6.624;2022-08-16T11:40:16;30.30;1.00
3876;DHT22;1953;51.222;6.624;2022-08-16T11:44:58;30.50;1.00
3876;DHT22;1953;51.222;6.624;2022-08-16T11:49:42;30.60;1.00
3876;DHT22;1953;51.222;6.624;2022-08-16T11:54:25;30.90;1.00
3876;DHT22;1953;51.222;6.624;2022-08-16T11:59:08;31.10;1.00
3876;DHT22;1953;51.222;6.624;2022-08-16T12:06:16;30.90;1.00
3876;DHT22;1953;51.222;6.624;2022-08-16T12:10:59;30.90;1.00
3876;DHT22;1953;51.222;6.624;2022-08-16T12:15:42;31.30;1.00
3876;DHT22;1953;51.222;6.624;2022-08-16T12:20:27;31.60;1.00
3876;DHT22;1953;51.222;6.624;2022-08-16T12:25:13;31.70;1.00
3876;DHT22;1953;51.222;6.624;2022-08-16T12:29:57;31.40;1.00
3876;DHT22;1953;51.222;6.624;2022-08-16T12:34:39;31.40;1.00
3876;DHT22;1953;51.222;6.624;2022-08-16T12:39:22;31.30;1.00
3876;DHT22;1953;51.222;6.624;2022-08-16T12:44:06;31.30;1.00
3876;DHT22;1953;51.222;6.624;2022-08-16T12:48:49;31.40;1.00
3876;DHT22;1953;51.222;6.624;2022-08-16T12:53:41;31.30;1.00
3876;DHT22;1953;51.222;6.624;2022-08-16T12:58:23;31.40;1.00
3876;DHT22;1953;51.222;6.624;2022-08-16T13:03:09;31.70;1.00
3876;DHT22;1953;51.222;6.624;2022-08-16T13:07:53;32.40;1.00
3876;DHT22;1953;51.222;6.624;2022-08-16T13:12:38;33.50;1.00
3876;DHT22;1953;51.222;6.624;2022-08-16T13:17:24;34.60;1.00
3876;DHT22;1953;51.222;6.624;2022-08-16T13:22:08;35.20;1.00
3876;DHT22;1953;51.222;6.624;2022-08-16T13:26:51;36.00;1.00
3876;DHT22;1953;51.222;6.624;2022-08-16T13:31:33;36.80;1.00
3876;DHT22;1953;51.222;6.624;2022-08-16T13:36:16;37.20;1.00
3876;DHT22;1953;51.222;6.624;2022-08-16T13:41:00;37.70;1.00
3876;DHT22;1953;51.222;6.624;2022-08-16T13:45:43;37.90;1.00
3876;DHT22;1953;51.222;6.624;2022-08-16T13:50:25;37.40;1.00
3876;DHT22;1953;51.222;6.624;2022-08-16T13:55:08;37.70;1.00
3876;DHT22;1953;51.222;6.624;2022-08-16T13:59:52;36.80;1.00
3876;DHT22;1953;51.222;6.624;2022-08-16T14:04:37;35.90;1.00
3876;DHT22;1953;51.222;6.624;2022-08-16T14:09:20;35.00;1.00
3876;DHT22;1953;51.222;6.624;2022-08-16T14:14:03;34.60;1.00
3876;DHT22;1953;51.222;6.624;2022-08-16T14:18:47;34.40;1.00
3876;DHT22;1953;51.222;6.624;2022-08-16T14:23:30;35.70;1.00
3876;DHT22;1953;51.222;6.624;2022-08-16T14:28:12;36.40;1.00
3876;DHT22;1953;51.222;6.624;2022-08-16T14:32:55;36.20;1.00
3876;DHT22;1953;51.222;6.624;2022-08-16T14:37:40;35.40;1.00
3876;DHT22;1953;51.222;6.624;2022-08-16T14:42:24;34.90;1.00
3876;DHT22;1953;51.222;6.624;2022-08-16T14:47:07;34.70;1.00
3876;DHT22;1953;51.222;6.624;2022-08-16T14:51:49;34.80;1.00
3876;DHT22;1953;51.222;6.624;2022-08-16T14:56:33;34.80;1.00
3876;DHT22;1953;51.222;6.624;2022-08-16T15:01:16;35.50;1.00
3876;DHT22;1953;51.222;6.624;2022-08-16T15:05:58;36.30;1.00
3876;DHT22;1953;51.222;6.624;2022-08-16T15:10:40;36.60;1.00
3876;DHT22;1953;51.222;6.624;2022-08-16T15:15:28;36.90;1.00
3876;DHT22;1953;51.222;6.624;2022-08-16T15:20:12;37.20;1.00
3876;DHT22;1953;51.222;6.624;2022-08-16T15:24:56;36.80;1.00
3876;DHT22;1953;51.222;6.624;2022-08-16T15:29:39;36.00;1.00
3876;DHT22;1953;51.222;6.624;2022-08-16T15:34:23;35.90;1.00
3876;DHT22;1953;51.222;6.624;2022-08-16T15:39:06;34.70;1.00
3876;DHT22;1953;51.222;6.624;2022-08-16T15:43:49;34.30;1.00
3876;DHT22;1953;51.222;6.624;2022-08-16T15:48:31;33.80;1.00
3876;DHT22;1953;51.222;6.624;2022-08-16T15:53:18;33.70;1.00
3876;DHT22;1953;51.222;6.624;2022-08-16T15:58:01;33.60;1.00
3876;DHT22;1953;51.222;6.624;2022-08-16T16:02:43;33.60;1.00
3876;DHT22;1953;51.222;6.624;2022-08-16T16:07:26;33.40;1.00
3876;DHT22;1953;51.222;6.624;2022-08-16T16:12:11;33.60;1.00
3876;DHT22;1953;51.222;6.624;2022-08-16T16:16:54;33.90;1.00
3876;DHT22;1953;51.222;6.624;2022-08-16T16:21:40;34.00;1.00
3876;DHT22;1953;51.222;6.624;2022-08-16T16:26:23;34.00;1.00
3876;DHT22;1953;51.222;6.624;2022-08-16T16:31:10;34.10;1.00
3876;DHT22;1953;51.222;6.624;2022-08-16T16:35:56;34.50;1.00
3876;DHT22;1953;51.222;6.624;2022-08-16T16:40:39;35.10;1.00
3876;DHT22;1953;51.222;6.624;2022-08-16T16:45:24;35.40;1.00
3876;DHT22;1953;51.222;6.624;2022-08-16T16:50:09;34.90;1.00
3876;DHT22;1953;51.222;6.624;2022-08-16T16:54:52;35.50;1.00
3876;DHT22;1953;51.222;6.624;2022-08-16T16:59:34;35.70;1.00
3876;DHT22;1953;51.222;6.624;2022-08-16T17:04:20;35.30;1.00
3876;DHT22;1953;51.222;6.624;2022-08-16T17:09:05;34.80;1.00
3876;DHT22;1953;51.222;6.624;2022-08-16T17:13:48;34.20;1.00
3876;DHT22;1953;51.222;6.624;2022-08-16T17:18:31;33.80;1.00
3876;DHT22;1953;51.222;6.624;2022-08-16T17:23:13;33.70;1.00
3876;DHT22;1953;51.222;6.624;2022-08-16T17:27:57;33.70;1.00
3876;DHT22;1953;51.222;6.624;2022-08-16T17:32:40;33.40;1.00
3876;DHT22;1953;51.222;6.624;2022-08-16T17:37:22;33.40;1.00
3876;DHT22;1953;51.222;6.624;2022-08-16T17:42:08;33.30;1.00
3876;DHT22;1953;51.222;6.624;2022-08-16T17:46:54;33.30;1.00
3876;DHT22;1953;51.222;6.624;2022-08-16T17:51:36;33.40;1.00
3876;DHT22;1953;51.222;6.624;2022-08-16T17:56:19;33.30;1.00
3876;DHT22;1953;51.222;6.624;2022-08-16T18:01:02;32.70;1.00
3876;DHT22;1953;51.222;6.624;2022-08-16T18:05:46;32.40;1.00
3876;DHT22;1953;51.222;6.624;2022-08-16T18:10:29;32.00;1.00
3876;DHT22;1953;51.222;6.624;2022-08-16T18:15:13;31.60;1.00
3876;DHT22;1953;51.222;6.624;2022-08-16T18:19:56;31.40;1.00
3876;DHT22;1953;51.222;6.624;2022-08-16T18:24:40;31.10;1.00
3876;DHT22;1953;51.222;6.624;2022-08-16T18:29:23;30.90;1.00
3876;DHT22;1953;51.222;6.624;2022-08-16T18:34:05;30.50;1.00
3876;DHT22;1953;51.222;6.624;2022-08-16T18:38:48;30.50;1.00
3876;DHT22;1953;51.222;6.624;2022-08-16T18:43:32;30.30;1.00
3876;DHT22;1953;51.222;6.624;2022-08-16T18:48:15;30.20;1.00
3876;DHT22;1953;51.222;6.624;2022-08-16T18:53:03;30.20;1.00
3876;DHT22;1953;51.222;6.624;2022-08-16T18:57:46;30.00;1.00
3876;DHT22;1953;51.222;6.624;2022-08-16T19:02:30;29.90;1.00
3876;DHT22;1953;51.222;6.624;2022-08-16T19:07:12;29.70;1.00
3876;DHT22;1953;51.222;6.624;2022-08-16T19:11:55;29.60;1.00
3876;DHT22;1953;51.222;6.624;2022-08-16T19:16:37;29.50;1.00
3876;DHT22;1953;51.222;6.624;2022-08-16T19:21:21;29.40;1.00
3876;DHT22;1953;51.222;6.624;2022-08-16T19:26:07;29.30;1.00
3876;DHT22;1953;51.222;6.624;2022-08-16T19:30:50;29.20;1.00
3876;DHT22;1953;51.222;6.624;2022-08-16T19:35:32;29.10;1.00
3876;DHT22;1953;51.222;6.624;2022-08-16T19:40:16;29.00;1.00
3876;DHT22;1953;51.222;6.624;2022-08-16T19:44:59;28.90;1.00
3876;DHT22;1953;51.222;6.624;2022-08-16T19:49:43;28.80;1.00
3876;DHT22;1953;51.222;6.624;2022-08-16T19:54:25;28.70;1.00
3876;DHT22;1953;51.222;6.624;2022-08-16T19:59:09;28.60;1.00
3876;DHT22;1953;51.222;6.624;2022-08-16T20:03:51;28.60;1.00
3876;DHT22;1953;51.222;6.624;2022-08-16T20:08:34;28.40;1.00
3876;DHT22;1953;51.222;6.624;2022-08-16T20:13:19;28.40;1.00
3876;DHT22;1953;51.222;6.624;2022-08-16T20:18:03;28.30;1.00
3876;DHT22;1953;51.222;6.624;2022-08-16T20:22:46;28.20;1.00
3876;DHT22;1953;51.222;6.624;2022-08-16T20:27:29;28.10;1.00
3876;DHT22;1953;51.222;6.624;2022-08-16T20:32:14;28.10;1.00
3876;DHT22;1953;51.222;6.624;2022-08-16T20:36:58;28.00;1.00
3876;DHT22;1953;51.222;6.624;2022-08-16T20:41:42;28.00;1.00
3876;DHT22;1953;51.222;6.624;2022-08-16T20:46:25;27.80;1.00
3876;DHT22;1953;51.222;6.624;2022-08-16T20:51:07;27.70;1.00
3876;DHT22;1953;51.222;6.624;2022-08-16T20:55:52;27.60;1.00
3876;DHT22;1953;51.222;6.624;2022-08-16T21:00:35;27.60;1.00
3876;DHT22;1953;51.222;6.624;2022-08-16T21:05:21;27.60;1.00
3876;DHT22;1953;51.222;6.624;2022-08-16T21:10:05;27.60;1.00
3876;DHT22;1953;51.222;6.624;2022-08-16T21:14:49;27.60;1.00
3876;DHT22;1953;51.222;6.624;2022-08-16T21:19:32;27.50;1.00
3876;DHT22;1953;51.222;6.624;2022-08-16T21:24:15;27.40;1.00
3876;DHT22;1953;51.222;6.624;2022-08-16T21:28:57;27.40;1.00
3876;DHT22;1953;51.222;6.624;2022-08-16T21:33:42;27.30;1.00
3876;DHT22;1953;51.222;6.624;2022-08-16T21:38:25;27.20;1.00
3876;DHT22;1953;51.222;6.624;2022-08-16T21:43:10;27.00;1.00
3876;DHT22;1953;51.222;6.624;2022-08-16T21:47:53;26.80;1.00
3876;DHT22;1953;51.222;6.624;2022-08-16T21:52:37;26.70;1.00
3876;DHT22;1953;51.222;6.624;2022-08-16T21:57:20;26.80;1.00
3876;DHT22;1953;51.222;6.624;2022-08-16T22:02:03;26.80;1.00
3876;DHT22;1953;51.222;6.624;2022-08-16T22:06:45;26.80;1.00
3876;DHT22;1953;51.222;6.624;2022-08-16T22:11:29;26.70;1.00
3876;DHT22;1953;51.222;6.624;2022-08-16T22:16:12;26.60;1.00
3876;DHT22;1953;51.222;6.624;2022-08-16T22:20:54;26.60;1.00
3876;DHT22;1953;51.222;6.624;2022-08-16T22:25:37;26.50;1.00
3876;DHT22;1953;51.222;6.624;2022-08-16T22:30:21;26.50;1.00
3876;DHT22;1953;51.222;6.624;2022-08-16T22:35:05;26.40;1.00
3876;DHT22;1953;51.222;6.624;2022-08-16T22:39:47;26.30;1.00
3876;DHT22;1953;51.222;6.624;2022-08-16T22:44:30;26.20;1.00
3876;DHT22;1953;51.222;6.624;2022-08-16T22:49:15;26.00;1.00
3876;DHT22;1953;51.222;6.624;2022-08-16T22:53:57;25.90;1.00
3876;DHT22;1953;51.222;6.624;2022-08-16T22:58:40;25.80;1.00
3876;DHT22;1953;51.222;6.624;2022-08-16T23:03:22;25.80;1.00
3876;DHT22;1953;51.222;6.624;2022-08-16T23:08:08;25.70;1.00
3876;DHT22;1953;51.222;6.624;2022-08-16T23:12:53;25.60;1.00
3876;DHT22;1953;51.222;6.624;2022-08-16T23:17:35;25.50;1.00
3876;DHT22;1953;51.222;6.624;2022-08-16T23:22:18;25.60;1.00
3876;DHT22;1953;51.222;6.624;2022-08-16T23:27:02;25.50;1.00
3876;DHT22;1953;51.222;6.624;2022-08-16T23:31:44;25.50;1.00
3876;DHT22;1953;51.222;6.624;2022-08-16T23:36:27;25.50;1.00
3876;DHT22;1953;51.222;6.624;2022-08-16T23:41:10;25.40;1.00
3876;DHT22;1953;51.222;6.624;2022-08-16T23:45:56;25.30;1.00
3876;DHT22;1953;51.222;6.624;2022-08-16T23:50:42;25.20;1.00
3876;DHT22;1953;51.222;6.624;2022-08-16T23:55:26;25.10;1.00
